Getafe Air Base

Airport
ICAO code: 
LEGT
Summary
ICAO Region: 
EUR
Territory: 
Location: 
,
Serving: 
Madrid
Elevation: 
2031 ft
Coordinates: 
Aerial View: 
40° 17' 38.9" N, 3° 43' 25.799" W
Metar
Observation
LEGT 301800Z 24003KT CAVOK 08/03 Q1026
Station
Madrid / Getafe
Date/Time
2021-11-30 18:00:00
Wind direction
240°
Wind speed
03 kts
Lowest cloud amount
clouds and visibility OK
Temperature
8°C
Dew point
3°C
Humidity
70%
QNH
1026 hPa
Weather condition
n/a

Runways

Designator Length Width Surface Rops
05R/23L 920 30 GRE No/No
5/23 2480 60 ASP No/No
Airport map: 
Aerial View: 

SKYbrary Partners:

Safety knowledge contributed by: